Time;durP1;ratioP1;P1;durP2;ratioP2;P2;SDS_P1;SDS_P2;PMS_P1;PMS_P2;Temp;Humidity;BMP_temperature;BMP_pressure;BME280_temperature;BME280_humidity;BME280_pressure;Samples;Min_cycle;Max_cycle;Signal;HPM_P1;HPM_P2
2023/07/06 00:00:47;;;;;;;8.52;5.32;;;12.90;99.90;;;;;;5118210;27;20039;-64
2023/07/06 00:03:14;;;;;;;6.93;5.07;;;12.80;99.90;;;;;;5123660;27;20500;-64
2023/07/06 00:05:47;;;;;;;6.25;4.88;;;12.80;99.90;;;;;;5130004;27;20039;-64
2023/07/06 00:08:14;;;;;;;8.75;6.00;;;12.70;99.90;;;;;;5123118;27;20517;-63
2023/07/06 00:10:42;;;;;;;9.85;5.53;;;12.70;99.90;;;;;;5128123;27;20118;-64
2023/07/06 00:13:09;;;;;;;9.13;5.72;;;12.70;99.90;;;;;;5144078;27;20039;-63
2023/07/06 00:15:35;;;;;;;8.73;5.60;;;12.70;99.90;;;;;;5123173;27;20177;-64
2023/07/06 00:18:05;;;;;;;10.82;5.70;;;12.60;99.90;;;;;;5119396;27;20027;-64
2023/07/06 00:20:38;;;;;;;8.93;5.07;;;12.70;99.90;;;;;;5132009;27;20067;-64
2023/07/06 00:23:04;;;;;;;7.47;5.38;;;12.70;99.90;;;;;;5134233;27;20457;-64
2023/07/06 00:25:30;;;;;;;8.18;5.07;;;12.60;99.90;;;;;;5148949;27;20042;-63
2023/07/06 00:27:58;;;;;;;9.02;5.05;;;12.60;99.90;;;;;;5137259;27;20482;-63
2023/07/06 00:30:40;;;;;;;8.20;4.85;;;12.60;99.90;;;;;;5107464;27;20038;-63
2023/07/06 00:33:11;;;;;;;6.65;4.78;;;12.60;99.90;;;;;;5126752;27;20418;-63
2023/07/06 00:35:40;;;;;;;7.53;5.00;;;12.50;99.90;;;;;;5116423;27;20046;-65
2023/07/06 00:38:11;;;;;;;7.22;4.45;;;12.50;99.90;;;;;;5125086;27;20449;-63
2023/07/06 00:40:43;;;;;;;6.50;4.70;;;12.50;99.90;;;;;;5119638;27;20051;-63
2023/07/06 00:43:11;;;;;;;7.75;4.70;;;12.50;99.90;;;;;;5111082;27;20153;-63
2023/07/06 00:45:37;;;;;;;7.65;4.85;;;12.50;99.90;;;;;;5138094;27;20085;-64
2023/07/06 00:48:08;;;;;;;8.93;4.32;;;12.50;99.90;;;;;;5151747;27;20392;-65
2023/07/06 00:50:34;;;;;;;5.70;4.10;;;12.40;99.90;;;;;;5145281;27;20087;-63
2023/07/06 00:53:14;;;;;;;8.50;4.43;;;12.40;99.90;;;;;;5131804;27;20031;-64
2023/07/06 00:55:40;;;;;;;5.63;4.20;;;12.40;99.90;;;;;;5099848;27;20117;-63
2023/07/06 00:58:18;;;;;;;6.60;3.95;;;12.40;99.90;;;;;;5095874;27;20043;-64
2023/07/06 01:00:44;;;;;;;8.70;4.65;;;12.30;99.90;;;;;;5101745;27;20047;-63
2023/07/06 01:03:10;;;;;;;9.57;4.68;;;12.30;99.90;;;;;;5115922;27;20035;-64
2023/07/06 01:05:38;;;;;;;5.13;4.28;;;12.30;99.90;;;;;;5143800;27;20066;-64
2023/07/06 01:08:11;;;;;;;7.43;4.78;;;12.30;99.90;;;;;;5133401;27;20042;-63
2023/07/06 01:10:39;;;;;;;5.30;4.28;;;12.30;99.90;;;;;;5141846;27;20043;-65
2023/07/06 01:13:07;;;;;;;6.50;4.70;;;12.20;99.90;;;;;;5130067;27;20059;-63
2023/07/06 01:15:40;;;;;;;8.18;4.60;;;12.20;99.90;;;;;;5129268;27;20054;-64
2023/07/06 01:18:27;;;;;;;7.18;4.50;;;12.20;99.90;;;;;;5120346;27;20038;-64
2023/07/06 01:21:16;;;;;;;7.18;4.70;;;12.20;99.90;;;;;;5139172;27;20035;-63
2023/07/06 01:23:57;;;;;;;5.50;4.30;;;12.20;99.90;;;;;;5121920;27;20047;-63
2023/07/06 01:26:54;;;;;;;6.22;4.28;;;12.20;99.90;;;;;;5132525;27;20043;-63
2023/07/06 01:29:50;;;;;;;4.78;4.10;;;12.20;99.90;;;;;;5126268;27;20113;-63
2023/07/06 01:32:23;;;;;;;6.63;4.47;;;12.20;99.90;;;;;;5126994;27;20073;-63
2023/07/06 01:34:57;;;;;;;;;;;12.10;99.90;;;;;;5131496;27;20038;-63
2023/07/06 01:37:42;;;;;;;4.53;4.10;;;12.20;99.90;;;;;;5144703;27;19919;-63
2023/07/06 01:40:11;;;;;;;6.22;4.20;;;12.20;99.90;;;;;;5119525;27;20545;-64
2023/07/06 01:42:42;;;;;;;6.20;4.28;;;12.20;99.90;;;;;;5117427;27;20092;-64
2023/07/06 01:45:17;;;;;;;4.97;4.25;;;12.20;99.90;;;;;;5130327;27;20038;-64
2023/07/06 01:47:51;;;;;;;6.32;4.07;;;12.10;99.90;;;;;;5146961;27;20501;-64
2023/07/06 01:50:20;;;;;;;5.97;4.20;;;12.10;99.90;;;;;;5129684;27;20031;-63
2023/07/06 01:53:07;;;;;;;6.47;4.50;;;12.10;99.90;;;;;;5119271;27;20042;-63
2023/07/06 01:55:40;;;;;;;5.43;4.20;;;12.10;99.90;;;;;;5123791;27;20091;-64
2023/07/06 01:58:26;;;;;;;8.40;4.82;;;12.10;99.90;;;;;;5137413;27;20042;-64
2023/07/06 02:01:15;;;;;;;4.80;4.13;;;12.10;99.90;;;;;;5115658;28;20464;-64
2023/07/06 02:03:41;;;;;;;7.00;4.60;;;12.10;99.90;;;;;;5129772;27;20046;-63
2023/07/06 02:06:09;;;;;;;9.65;4.85;;;12.10;99.90;;;;;;5131153;27;20039;-63
2023/07/06 02:08:41;;;;;;;7.72;5.03;;;12.10;99.90;;;;;;5132665;27;20043;-63
2023/07/06 02:11:07;;;;;;;7.38;4.95;;;12.20;99.90;;;;;;5106889;27;20264;-64
2023/07/06 02:13:33;;;;;;;6.17;4.77;;;12.20;99.90;;;;;;5104001;27;1075167;-64
2023/07/06 02:15:58;;;;;;;7.20;4.72;;;12.20;99.90;;;;;;5121767;27;20586;-66
2023/07/06 02:18:24;;;;;;;9.60;5.10;;;12.20;99.90;;;;;;5143656;27;20450;-63
2023/07/06 02:20:53;;;;;;;7.95;5.10;;;12.20;99.90;;;;;;5143615;27;20031;-64
2023/07/06 02:23:18;;;;;;;9.13;5.32;;;12.20;99.90;;;;;;5149761;27;20070;-64
2023/07/06 02:25:44;;;;;;;7.65;5.38;;;12.20;99.90;;;;;;5139567;27;20488;-63
2023/07/06 02:28:10;;;;;;;7.70;5.13;;;12.20;99.90;;;;;;5122774;27;20473;-64
2023/07/06 02:30:37;;;;;;;8.57;5.45;;;12.20;99.90;;;;;;5133015;27;20494;-63
2023/07/06 02:33:03;;;;;;;6.43;4.90;;;12.20;99.90;;;;;;5113417;28;20061;-63
2023/07/06 02:35:29;;;;;;;7.82;5.07;;;12.20;99.90;;;;;;5140477;27;20030;-64
2023/07/06 02:37:54;;;;;;;7.85;5.30;;;12.20;99.90;;;;;;5112676;27;20042;-63
2023/07/06 02:40:20;;;;;;;7.60;5.10;;;12.20;99.90;;;;;;5140541;27;20499;-65
2023/07/06 02:42:46;;;;;;;6.43;4.78;;;12.20;99.90;;;;;;5118694;27;20381;-64
2023/07/06 02:45:11;;;;;;;7.38;5.18;;;12.20;99.90;;;;;;5139017;27;20497;-64
2023/07/06 02:47:38;;;;;;;6.68;4.75;;;12.20;99.90;;;;;;5126867;27;20054;-64
2023/07/06 02:50:10;;;;;;;9.48;5.03;;;12.20;99.90;;;;;;5133531;27;20053;-63
2023/07/06 02:52:37;;;;;;;9.02;5.60;;;12.20;99.90;;;;;;5119597;27;20067;-63
2023/07/06 02:55:03;;;;;;;8.40;5.40;;;12.20;99.90;;;;;;5139188;27;20096;-64
2023/07/06 02:57:31;;;;;;;8.70;5.45;;;12.20;99.90;;;;;;5120184;27;20075;-62
2023/07/06 02:59:57;;;;;;;6.35;5.05;;;12.20;99.90;;;;;;5150477;27;20119;-63
2023/07/06 03:02:23;;;;;;;8.02;5.43;;;12.20;99.90;;;;;;5144822;27;20117;-63
2023/07/06 03:04:49;;;;;;;7.75;5.55;;;12.20;99.90;;;;;;5120490;27;20043;-63
2023/07/06 03:07:15;;;;;;;8.32;5.60;;;12.20;99.90;;;;;;5130487;27;20039;-64
2023/07/06 03:09:42;;;;;;;6.43;5.35;;;12.10;99.90;;;;;;5115101;27;20095;-63
2023/07/06 03:12:09;;;;;;;6.68;5.05;;;12.10;99.90;;;;;;5148114;27;20066;-64
2023/07/06 03:14:35;;;;;;;10.48;5.70;;;12.10;99.90;;;;;;5135291;27;20058;-63
2023/07/06 03:17:00;;;;;;;7.88;5.18;;;12.10;99.90;;;;;;5146344;27;20039;-64
2023/07/06 03:19:26;;;;;;;6.35;5.10;;;12.10;99.90;;;;;;5119741;27;20035;-64
2023/07/06 03:21:52;;;;;;;7.10;5.13;;;12.00;99.90;;;;;;5124591;27;20045;-64
2023/07/06 03:24:18;;;;;;;7.30;5.32;;;12.00;99.90;;;;;;5126266;27;20091;-64
2023/07/06 03:26:44;;;;;;;6.70;5.72;;;12.00;99.90;;;;;;5124271;27;20035;-65
2023/07/06 03:29:13;;;;;;;10.48;5.90;;;12.00;99.90;;;;;;5150126;27;20023;-62
2023/07/06 03:31:39;;;;;;;7.13;5.53;;;12.00;99.90;;;;;;5118464;27;20126;-64
2023/07/06 03:34:07;;;;;;;7.70;5.40;;;12.00;99.90;;;;;;5122442;27;20100;-64
2023/07/06 03:36:34;;;;;;;8.88;6.32;;;12.00;99.90;;;;;;5123560;27;20075;-63
2023/07/06 03:39:01;;;;;;;8.25;6.15;;;12.00;99.90;;;;;;5130716;27;20087;-64
2023/07/06 03:41:27;;;;;;;10.10;6.03;;;12.00;99.90;;;;;;5132754;27;20031;-63
2023/07/06 03:43:56;;;;;;;10.27;5.97;;;12.00;99.90;;;;;;5141456;27;20027;-64
2023/07/06 03:46:31;;;;;;;8.60;6.03;;;12.00;99.90;;;;;;5120177;27;20046;-64
2023/07/06 03:48:57;;;;;;;6.30;5.60;;;12.00;99.90;;;;;;5129351;27;20045;-63
2023/07/06 03:51:22;;;;;;;6.95;5.65;;;12.00;99.90;;;;;;5152762;27;20133;-62
2023/07/06 03:53:48;;;;;;;6.95;5.25;;;12.10;99.90;;;;;;5127078;27;20042;-63
2023/07/06 03:56:16;;;;;;;9.10;5.82;;;12.10;99.90;;;;;;5146555;27;20038;-65
2023/07/06 03:58:42;;;;;;;9.02;6.20;;;12.10;99.90;;;;;;5117739;27;20039;-64
2023/07/06 04:01:08;;;;;;;10.02;6.00;;;12.10;99.90;;;;;;5126142;27;20066;-63
2023/07/06 04:03:34;;;;;;;12.52;6.18;;;12.20;99.90;;;;;;5126880;27;20074;-64
2023/07/06 04:06:03;;;;;;;10.75;6.20;;;12.20;99.90;;;;;;5125114;27;20114;-63
2023/07/06 04:08:30;;;;;;;12.68;6.60;;;12.30;99.90;;;;;;5126820;27;20530;-64
2023/07/06 04:10:55;;;;;;;8.30;5.93;;;12.30;99.90;;;;;;5137834;27;20035;-63
2023/07/06 04:13:22;;;;;;;11.10;5.93;;;12.40;99.90;;;;;;5129813;27;20062;-63
2023/07/06 04:15:51;;;;;;;12.30;6.20;;;12.40;99.90;;;;;;5130577;27;20042;-64
2023/07/06 04:18:17;;;;;;;10.02;5.88;;;12.40;99.90;;;;;;5121935;27;20031;-62
2023/07/06 04:20:43;;;;;;;8.30;5.72;;;12.50;99.90;;;;;;5120337;27;20054;-63
2023/07/06 04:23:09;;;;;;;9.98;6.28;;;12.50;99.90;;;;;;5100409;27;20059;-63
2023/07/06 04:25:36;;;;;;;8.20;5.72;;;12.50;99.90;;;;;;5115338;27;20069;-63
2023/07/06 04:28:13;;;;;;;9.82;5.85;;;12.50;99.90;;;;;;5117353;27;20047;-64
2023/07/06 04:30:41;;;;;;;11.60;5.95;;;12.50;99.90;;;;;;5128108;27;20047;-64
2023/07/06 04:33:10;;;;;;;10.73;5.80;;;12.50;99.90;;;;;;5114942;27;20397;-63
2023/07/06 04:35:36;;;;;;;8.80;5.80;;;12.50;99.90;;;;;;5113559;27;20526;-64
2023/07/06 04:38:03;;;;;;;7.13;5.60;;;12.50;99.90;;;;;;5148870;27;20043;-63
2023/07/06 04:40:29;;;;;;;6.90;5.20;;;12.50;99.90;;;;;;5115795;27;20038;-64
2023/07/06 04:42:55;;;;;;;12.13;5.80;;;12.50;99.90;;;;;;5115804;27;20104;-64
2023/07/06 04:45:26;;;;;;;7.68;5.78;;;12.40;99.90;;;;;;5142047;27;20070;-64
2023/07/06 04:47:53;;;;;;;7.40;5.95;;;12.50;99.90;;;;;;5142787;27;20043;-63
2023/07/06 04:50:23;;;;;;;8.57;5.90;;;12.50;99.90;;;;;;5124690;27;20038;-64
2023/07/06 04:52:55;;;;;;;8.77;6.60;;;12.60;99.90;;;;;;5122170;27;20039;-64
2023/07/06 04:55:26;;;;;;;9.43;5.93;;;12.80;99.90;;;;;;5120487;27;20046;-64
2023/07/06 04:57:54;;;;;;;14.57;6.47;;;12.90;99.90;;;;;;5122633;27;20115;-64
2023/07/06 05:00:33;;;;;;;9.82;6.25;;;13.00;99.90;;;;;;5139156;27;20553;-63
2023/07/06 05:03:06;;;;;;;15.05;6.50;;;13.10;99.90;;;;;;5129460;27;20481;-63
2023/07/06 05:05:39;;;;;;;8.20;5.65;;;13.20;99.90;;;;;;5148226;27;20118;-64
2023/07/06 05:08:05;;;;;;;;;;;13.30;99.90;;;;;;5117431;27;20089;-64
2023/07/06 05:10:30;;;;;;;10.10;5.88;;;13.40;99.90;;;;;;5130807;27;19966;-63
2023/07/06 05:12:56;;;;;;;12.52;6.47;;;13.60;99.90;;;;;;5112409;27;20397;-64
2023/07/06 05:15:22;;;;;;;10.88;6.22;;;13.70;99.90;;;;;;5116287;27;20150;-64
2023/07/06 05:17:48;;;;;;;11.48;6.00;;;13.80;99.90;;;;;;5139553;27;20046;-63
2023/07/06 05:20:14;;;;;;;11.82;6.38;;;13.90;99.90;;;;;;5117774;27;20035;-63
2023/07/06 05:22:41;;;;;;;9.82;5.88;;;13.90;99.90;;;;;;5142616;27;20140;-63
2023/07/06 05:25:10;;;;;;;12.93;6.88;;;14.00;99.90;;;;;;5118812;27;20074;-64
2023/07/06 05:27:37;;;;;;;14.48;6.70;;;14.00;99.90;;;;;;5131257;27;20111;-63
2023/07/06 05:30:03;;;;;;;13.75;6.07;;;14.10;99.90;;;;;;5122763;27;20548;-64
2023/07/06 05:32:29;;;;;;;16.73;6.65;;;14.10;99.90;;;;;;5115402;27;20077;-64
2023/07/06 05:34:54;;;;;;;11.10;5.93;;;14.20;99.90;;;;;;5119604;28;20082;-64
2023/07/06 05:37:20;;;;;;;11.15;6.88;;;14.30;99.90;;;;;;5125143;27;20047;-63
2023/07/06 05:39:47;;;;;;;13.50;7.60;;;14.30;99.90;;;;;;5144558;27;20369;-64
2023/07/06 05:42:13;;;;;;;15.38;6.55;;;14.50;99.90;;;;;;5132446;27;20046;-63
2023/07/06 05:44:39;;;;;;;12.70;6.45;;;14.60;99.90;;;;;;5119723;27;20034;-63
2023/07/06 05:47:07;;;;;;;13.18;6.45;;;14.80;99.90;;;;;;5118479;27;20042;-62
2023/07/06 05:49:33;;;;;;;11.27;6.60;;;14.90;99.90;;;;;;5144438;27;20054;-63
2023/07/06 05:51:59;;;;;;;13.43;6.25;;;15.00;99.90;;;;;;5139919;27;20115;-64
2023/07/06 05:54:24;;;;;;;11.57;6.32;;;15.10;99.90;;;;;;5126183;27;20062;-63
2023/07/06 05:56:50;;;;;;;10.38;6.70;;;15.20;99.90;;;;;;5124618;27;20070;-63
2023/07/06 05:59:16;;;;;;;12.18;6.53;;;15.40;99.90;;;;;;5147025;27;20045;-64
2023/07/06 06:01:42;;;;;;;13.65;6.47;;;15.50;99.90;;;;;;5121850;27;20042;-63
2023/07/06 06:04:07;;;;;;;13.52;6.25;;;15.60;99.90;;;;;;5133091;27;20084;-64
2023/07/06 06:06:48;;;;;;;12.45;6.38;;;15.70;99.90;;;;;;5139573;27;20049;-64
2023/07/06 06:09:14;;;;;;;15.50;5.53;;;15.80;99.90;;;;;;5144045;27;20038;-65
2023/07/06 06:11:41;;;;;;;14.98;5.90;;;16.00;99.90;;;;;;5118183;28;20388;-63
2023/07/06 06:14:07;;;;;;;12.02;5.80;;;16.00;99.90;;;;;;5105533;27;20043;-63
2023/07/06 06:16:32;;;;;;;12.65;5.65;;;16.10;99.90;;;;;;5100329;27;20054;-63
2023/07/06 06:19:00;;;;;;;13.38;5.78;;;16.10;99.90;;;;;;5118611;27;21498;-63
2023/07/06 06:21:27;;;;;;;16.08;6.40;;;16.10;99.90;;;;;;5142881;27;20061;-65
2023/07/06 06:23:52;;;;;;;13.93;5.75;;;16.10;99.90;;;;;;5136228;27;20049;-64
2023/07/06 06:26:18;;;;;;;15.80;6.18;;;16.10;99.90;;;;;;5145479;27;20027;-62
2023/07/06 06:28:44;;;;;;;12.07;6.03;;;16.10;99.90;;;;;;5133928;27;20034;-63
2023/07/06 06:31:12;;;;;;;12.30;6.07;;;16.10;99.90;;;;;;5125793;27;20563;-63
2023/07/06 06:33:38;;;;;;;12.85;6.03;;;16.20;99.90;;;;;;5115674;27;20072;-63
2023/07/06 06:36:04;;;;;;;13.30;6.28;;;16.10;99.90;;;;;;5135030;27;20402;-64
2023/07/06 06:38:34;;;;;;;14.45;5.97;;;16.30;99.90;;;;;;5117085;27;20046;-64
2023/07/06 06:41:02;;;;;;;17.63;5.95;;;16.30;99.90;;;;;;5106272;27;20042;-64
2023/07/06 06:43:28;;;;;;;16.35;6.22;;;16.60;99.90;;;;;;5120427;27;20050;-64
2023/07/06 06:45:54;;;;;;;13.82;6.10;;;16.50;99.90;;;;;;5124038;27;20042;-63
2023/07/06 06:48:20;;;;;;;12.88;6.60;;;16.40;99.90;;;;;;5125873;27;20465;-63
2023/07/06 06:50:46;;;;;;;16.90;6.28;;;16.20;99.90;;;;;;5142329;27;20031;-65
2023/07/06 06:53:12;;;;;;;10.55;6.25;;;16.10;99.90;;;;;;5124676;27;20038;-65
2023/07/06 06:55:37;;;;;;;13.73;6.32;;;16.00;99.90;;;;;;5120999;27;20118;-64
2023/07/06 06:58:03;;;;;;;14.10;6.60;;;15.90;99.90;;;;;;5150298;27;20031;-65
2023/07/06 07:00:29;;;;;;;15.85;6.57;;;15.90;99.90;;;;;;5121849;27;20084;-63
2023/07/06 07:02:57;;;;;;;14.07;6.30;;;16.20;99.90;;;;;;5121390;27;20035;-65
2023/07/06 07:05:23;;;;;;;14.13;6.60;;;16.40;99.90;;;;;;5118330;27;20049;-63
2023/07/06 07:07:51;;;;;;;15.98;6.85;;;16.50;99.90;;;;;;5154300;27;20039;-64
2023/07/06 07:10:17;;;;;;;11.88;7.18;;;16.50;99.90;;;;;;5116116;27;20050;-63
2023/07/06 07:12:47;;;;;;;14.75;7.00;;;16.60;99.90;;;;;;5102603;27;20157;-65
2023/07/06 07:15:14;;;;;;;12.20;6.88;;;16.90;99.90;;;;;;5146694;27;20043;-64
2023/07/06 07:17:40;;;;;;;15.13;7.25;;;17.10;99.90;;;;;;5130833;27;20057;-64
2023/07/06 07:20:06;;;;;;;15.70;6.82;;;17.10;99.90;;;;;;5133179;27;20035;-63
2023/07/06 07:22:33;;;;;;;12.45;5.97;;;17.20;99.90;;;;;;5135549;27;20038;-64
2023/07/06 07:24:58;;;;;;;18.38;7.50;;;17.40;99.90;;;;;;5151837;27;20085;-63
2023/07/06 07:27:26;;;;;;;18.52;7.22;;;17.70;99.90;;;;;;5121507;27;20120;-63
2023/07/06 07:29:53;;;;;;;12.13;6.57;;;17.80;99.90;;;;;;5132841;27;20480;-65
2023/07/06 07:32:20;;;;;;;13.88;6.22;;;17.90;99.90;;;;;;5124302;27;20070;-65
2023/07/06 07:34:50;;;;;;;13.50;6.18;;;18.10;99.90;;;;;;5122603;27;20054;-63
2023/07/06 07:37:18;;;;;;;11.65;6.32;;;18.00;99.90;;;;;;5143014;27;20042;-64
2023/07/06 07:39:48;;;;;;;13.40;6.05;;;17.70;99.90;;;;;;5148067;27;20030;-66
2023/07/06 07:42:16;;;;;;;14.05;6.55;;;17.50;99.90;;;;;;5141489;27;20039;-65
2023/07/06 07:44:44;;;;;;;15.45;6.15;;;17.40;99.90;;;;;;5123762;27;20062;-65
2023/07/06 07:47:15;;;;;;;10.35;6.15;;;17.60;99.90;;;;;;5118141;27;20417;-64
2023/07/06 07:49:41;;;;;;;14.90;6.20;;;17.70;99.90;;;;;;5118956;27;20113;-64
2023/07/06 07:52:09;;;;;;;13.52;6.03;;;17.80;99.90;;;;;;5115316;27;20130;-64
2023/07/06 07:54:35;;;;;;;12.80;5.78;;;18.00;99.90;;;;;;5131310;27;20057;-63
2023/07/06 07:57:01;;;;;;;10.38;6.18;;;18.00;99.90;;;;;;5124907;27;20125;-63
2023/07/06 07:59:26;;;;;;;14.25;6.45;;;18.10;99.90;;;;;;5119069;27;20080;-64
2023/07/06 08:01:52;;;;;;;11.48;6.38;;;18.00;99.90;;;;;;5120176;27;20584;-63
2023/07/06 08:04:20;;;;;;;11.18;5.65;;;18.10;99.90;;;;;;5125541;27;20039;-65
2023/07/06 08:06:46;;;;;;;11.65;5.32;;;18.20;99.90;;;;;;5122282;27;20043;-64
2023/07/06 08:09:13;;;;;;;10.80;5.28;;;18.30;99.90;;;;;;5119961;27;20046;-65
2023/07/06 08:11:45;;;;;;;12.73;5.05;;;18.50;99.90;;;;;;5143628;27;20095;-64
2023/07/06 08:14:11;;;;;;;;;;;18.70;99.90;;;;;;5116618;27;20152;-65
2023/07/06 08:16:40;;;;;;;11.57;4.30;;;18.70;99.90;;;;;;5142653;27;19997;-65
2023/07/06 08:19:07;;;;;;;7.53;4.18;;;18.90;99.90;;;;;;5117297;27;20046;-66
2023/07/06 08:21:33;;;;;;;8.68;3.97;;;19.10;99.90;;;;;;5123579;27;20131;-63
2023/07/06 08:23:59;;;;;;;7.70;3.92;;;19.30;99.90;;;;;;5121323;27;20117;-64
2023/07/06 08:26:25;;;;;;;9.80;4.88;;;19.40;99.90;;;;;;5116245;27;20034;-66
2023/07/06 08:28:51;;;;;;;9.40;4.30;;;19.60;99.90;;;;;;5133325;27;20035;-64
2023/07/06 08:31:19;;;;;;;12.23;4.55;;;19.80;99.90;;;;;;5125060;27;20043;-66
2023/07/06 08:33:47;;;;;;;11.20;4.20;;;20.10;99.90;;;;;;5119311;27;20042;-64
2023/07/06 08:36:14;;;;;;;11.60;4.22;;;20.30;99.90;;;;;;5102786;27;20051;-66
2023/07/06 08:38:43;;;;;;;6.00;2.80;;;20.30;99.90;;;;;;5124868;27;20047;-63
2023/07/06 08:41:33;;;;;;;7.85;2.70;;;20.60;99.90;;;;;;5124471;27;20046;-64
2023/07/06 08:44:04;;;;;;;8.02;3.88;;;20.50;99.90;;;;;;5122360;27;20077;-62
2023/07/06 08:46:34;;;;;;;9.27;4.35;;;20.50;99.90;;;;;;5125902;27;20070;-64
2023/07/06 08:49:01;;;;;;;9.13;4.07;;;20.00;99.90;;;;;;5147369;27;20049;-64
2023/07/06 08:51:37;;;;;;;8.40;3.78;;;20.00;99.90;;;;;;5117693;27;20058;-63
2023/07/06 08:54:19;;;;;;;7.50;3.75;;;19.80;99.90;;;;;;5136407;27;20093;-63
2023/07/06 08:56:47;;;;;;;9.43;3.63;;;19.80;99.90;;;;;;5130983;27;20038;-63
2023/07/06 08:59:20;;;;;;;7.88;3.85;;;19.60;99.90;;;;;;5129941;27;20500;-63
2023/07/06 09:01:47;;;;;;;7.20;3.08;;;19.40;99.90;;;;;;5142190;27;20246;-63
2023/07/06 09:04:16;;;;;;;7.93;3.38;;;19.40;99.90;;;;;;5129494;27;20087;-65
2023/07/06 09:06:48;;;;;;;4.75;2.60;;;19.30;99.90;;;;;;5102613;27;20122;-64
2023/07/06 09:09:14;;;;;;;6.65;3.13;;;19.30;99.90;;;;;;5128112;27;20512;-64
2023/07/06 09:11:43;;;;;;;7.47;2.83;;;19.50;99.90;;;;;;5125418;27;20046;-65
2023/07/06 09:14:13;;;;;;;6.43;2.72;;;19.80;99.90;;;;;;5139876;27;20055;-63
2023/07/06 09:16:49;;;;;;;6.65;3.05;;;19.80;99.90;;;;;;5105399;27;20074;-64
2023/07/06 09:19:17;;;;;;;7.47;2.65;;;19.80;99.90;;;;;;5116018;27;20050;-64
2023/07/06 09:21:47;;;;;;;2.92;1.95;;;19.60;99.90;;;;;;5103224;27;20107;-64
2023/07/06 09:24:13;;;;;;;6.32;2.00;;;19.40;99.90;;;;;;5130720;27;20046;-64
2023/07/06 09:26:42;;;;;;;6.63;2.03;;;19.20;99.90;;;;;;5144732;27;20039;-63
2023/07/06 09:29:24;;;;;;;3.75;1.92;;;19.10;99.90;;;;;;5115952;27;20099;-62
2023/07/06 09:32:19;;;;;;;4.35;1.80;;;19.00;99.90;;;;;;5124403;27;20055;-64
2023/07/06 09:34:50;;;;;;;5.32;2.00;;;18.90;99.90;;;;;;5120296;27;20096;-63
2023/07/06 09:37:17;;;;;;;8.75;2.17;;;18.90;99.90;;;;;;5129769;27;20058;-64
2023/07/06 09:40:03;;;;;;;4.63;2.42;;;19.00;99.90;;;;;;5123470;27;20047;-63
2023/07/06 09:42:29;;;;;;;5.30;2.03;;;19.20;99.90;;;;;;5131588;27;20485;-64
2023/07/06 09:44:55;;;;;;;6.70;2.25;;;19.30;99.90;;;;;;5140633;27;20033;-65
2023/07/06 09:47:23;;;;;;;6.88;2.95;;;19.50;99.90;;;;;;5135387;27;20043;-63
2023/07/06 09:49:57;;;;;;;6.47;2.35;;;19.40;99.90;;;;;;5121516;27;20050;-63
2023/07/06 09:52:23;;;;;;;4.70;1.92;;;19.30;99.90;;;;;;5124005;27;20053;-63
2023/07/06 09:55:07;;;;;;;6.40;2.17;;;19.40;99.90;;;;;;5130289;27;20039;-63
2023/07/06 09:57:35;;;;;;;5.45;1.70;;;19.40;99.90;;;;;;5123934;27;20482;-64
2023/07/06 10:00:03;;;;;;;5.22;1.58;;;19.30;99.90;;;;;;5121689;27;20167;-62
2023/07/06 10:03:00;;;;;;;5.97;2.10;;;19.60;99.90;;;;;;5124133;27;20039;-65
2023/07/06 10:05:42;;;;;;;6.03;1.50;;;19.90;99.90;;;;;;5124613;27;20034;-63
2023/07/06 10:08:25;;;;;;;5.57;2.03;;;20.20;99.90;;;;;;5118637;27;20054;-64
2023/07/06 10:11:24;;;;;;;5.45;2.00;;;20.20;99.90;;;;;;5124554;27;20288;-65
2023/07/06 10:14:04;;;;;;;8.15;2.20;;;20.50;99.90;;;;;;5123910;27;20058;-62
2023/07/06 10:16:50;;;;;;;8.32;2.15;;;20.90;99.90;;;;;;5126140;27;20082;-63
2023/07/06 10:19:41;;;;;;;6.50;2.05;;;21.20;99.90;;;;;;5141319;27;20031;-62
2023/07/06 10:22:20;;;;;;;7.53;2.30;;;21.10;99.90;;;;;;5128929;27;20037;-63
2023/07/06 10:25:18;;;;;;;4.47;2.40;;;21.20;99.90;;;;;;5142171;27;20111;-62
2023/07/06 10:27:49;;;;;;;5.70;2.20;;;21.10;99.90;;;;;;5144199;27;20407;-62
2023/07/06 10:30:47;;;;;;;5.75;2.00;;;21.20;99.90;;;;;;5119614;27;20046;-63
2023/07/06 10:33:32;;;;;;;7.07;2.47;;;21.30;99.90;;;;;;5017650;28;20061;-60
2023/07/06 10:35:59;;;;;;;5.97;2.40;;;21.20;99.90;;;;;;5016626;28;20053;-62
2023/07/06 10:38:25;;;;;;;7.07;2.50;;;21.30;99.90;;;;;;5047054;28;20045;-62
2023/07/06 10:41:12;;;;;;;7.30;2.00;;;21.60;99.90;;;;;;5030123;28;20129;-62
2023/07/06 10:43:48;;;;;;;4.30;2.08;;;21.90;99.90;;;;;;5016658;28;20536;-63
2023/07/06 10:46:37;;;;;;;7.80;2.65;;;22.10;99.90;;;;;;5028478;28;20053;-62
2023/07/06 10:49:20;;;;;;;4.85;2.25;;;22.40;99.90;;;;;;5025708;28;20048;-61
2023/07/06 10:51:55;;;;;;;7.18;2.42;;;22.50;97.00;;;;;;5038438;28;20440;-62
2023/07/06 10:54:21;;;;;;;3.08;1.77;;;22.50;98.70;;;;;;5017198;28;20624;-63
2023/07/06 10:57:03;;;;;;;4.95;1.80;;;22.60;98.60;;;;;;5039399;28;20049;-63
2023/07/06 10:59:37;;;;;;;;;;;22.40;95.10;;;;;;5022294;28;20051;-64
2023/07/06 11:02:26;;;;;;;4.53;2.22;;;21.90;95.90;;;;;;5033120;28;19954;-61
2023/07/06 11:05:17;;;;;;;4.85;1.80;;;21.50;98.30;;;;;;5045982;28;20471;-63
2023/07/06 11:07:46;;;;;;;3.42;1.55;;;21.10;98.60;;;;;;5027803;28;20132;-63
2023/07/06 11:10:14;;;;;;;5.70;1.40;;;21.10;98.70;;;;;;5107604;27;20445;-63
2023/07/06 11:12:55;;;;;;;5.47;1.90;;;20.90;98.30;;;;;;5100948;27;20058;-62
2023/07/06 11:15:51;;;;;;;4.43;1.95;;;20.80;97.70;;;;;;5150510;27;20058;-63
2023/07/06 11:18:37;;;;;;;4.43;1.48;;;20.50;98.20;;;;;;5129872;27;20142;-62
2023/07/06 11:21:25;;;;;;;3.45;1.60;;;20.40;98.10;;;;;;5119212;27;20080;-63
2023/07/06 11:23:56;;;;;;;7.30;1.42;;;20.10;99.10;;;;;;5115219;27;20039;-61
2023/07/06 11:27:01;;;;;;;4.72;1.90;;;20.00;99.80;;;;;;5116807;27;20047;-63
2023/07/06 11:29:30;;;;;;;6.32;1.20;;;20.00;99.90;;;;;;5124085;27;20043;-64
2023/07/06 11:32:09;;;;;;;5.07;1.20;;;20.00;99.90;;;;;;5122161;27;20468;-62
2023/07/06 11:34:40;;;;;;;4.43;1.67;;;20.00;99.90;;;;;;5124597;27;20148;-63
2023/07/06 11:37:21;;;;;;;3.72;1.67;;;19.90;99.30;;;;;;5126737;27;20465;-62
2023/07/06 11:40:19;;;;;;;3.60;1.85;;;19.80;99.20;;;;;;5124424;27;20073;-62
2023/07/06 11:42:59;;;;;;;5.65;1.67;;;19.90;99.80;;;;;;5140394;27;20062;-63
2023/07/06 11:45:33;;;;;;;5.28;2.10;;;20.20;99.60;;;;;;5125446;27;20030;-63
2023/07/06 11:47:59;;;;;;;4.38;1.60;;;20.40;99.10;;;;;;5124196;27;20043;-61
2023/07/06 11:50:30;;;;;;;5.00;1.60;;;20.50;98.40;;;;;;5147405;27;20034;-63
2023/07/06 11:53:09;;;;;;;9.20;1.88;;;20.50;99.50;;;;;;5149376;27;20078;-63
2023/07/06 11:55:50;;;;;;;5.97;1.80;;;20.40;99.60;;;;;;5152703;27;20035;-63
2023/07/06 11:58:43;;;;;;;4.43;1.40;;;20.50;99.40;;;;;;5117326;27;20396;-62
2023/07/06 12:01:47;;;;;;;3.85;1.75;;;20.80;99.70;;;;;;5118551;27;20035;-63
2023/07/06 12:04:18;;;;;;;4.93;1.83;;;20.70;98.90;;;;;;5120467;27;20043;-63
2023/07/06 12:06:45;;;;;;;5.95;2.40;;;20.70;98.90;;;;;;5151558;27;20117;-62
2023/07/06 12:09:19;;;;;;;5.10;2.25;;;20.80;98.50;;;;;;5130669;27;20146;-64
2023/07/06 12:11:55;;;;;;;6.57;2.10;;;20.70;98.90;;;;;;5129500;27;20047;-63
2023/07/06 12:14:21;;;;;;;6.93;2.30;;;20.60;99.10;;;;;;5133224;27;20089;-62
2023/07/06 12:16:50;;;;;;;6.53;1.90;;;20.50;99.60;;;;;;5117215;27;20167;-63
2023/07/06 12:19:18;;;;;;;5.20;1.90;;;20.40;98.50;;;;;;5116288;27;20048;-63
2023/07/06 12:21:50;;;;;;;4.97;2.03;;;20.30;99.10;;;;;;5120158;27;20031;-62
2023/07/06 12:24:20;;;;;;;5.82;2.10;;;20.20;99.60;;;;;;5127118;27;20041;-63
2023/07/06 12:26:48;;;;;;;7.05;2.47;;;20.10;99.90;;;;;;5132289;27;20042;-62
2023/07/06 12:29:15;;;;;;;6.55;2.30;;;19.90;99.90;;;;;;5113230;27;20078;-63
2023/07/06 12:31:45;;;;;;;4.80;2.20;;;19.80;99.90;;;;;;5116175;27;20049;-63
2023/07/06 12:34:23;;;;;;;5.65;2.30;;;19.80;99.90;;;;;;5120244;27;20043;-62
2023/07/06 12:36:49;;;;;;;6.00;2.35;;;19.70;99.90;;;;;;5126160;27;20051;-63
2023/07/06 12:39:18;;;;;;;4.10;2.10;;;19.60;99.90;;;;;;5150799;27;20389;-63
2023/07/06 12:41:44;;;;;;;6.80;2.25;;;19.60;99.90;;;;;;5114166;27;20039;-62
2023/07/06 12:44:17;;;;;;;5.35;2.00;;;19.60;99.90;;;;;;5135236;27;20034;-62
2023/07/06 12:46:51;;;;;;;7.55;2.75;;;19.60;99.90;;;;;;5132732;27;20046;-63
2023/07/06 12:49:21;;;;;;;6.25;2.30;;;19.60;99.90;;;;;;5123535;27;20413;-63
2023/07/06 12:51:55;;;;;;;3.65;1.92;;;19.70;99.90;;;;;;5128942;27;20043;-62
2023/07/06 12:54:26;;;;;;;4.05;2.08;;;19.80;99.90;;;;;;5142174;27;20034;-62
2023/07/06 12:57:22;;;;;;;4.75;2.00;;;19.90;99.90;;;;;;5116354;27;20046;-61
2023/07/06 13:00:08;;;;;;;5.53;2.42;;;20.20;99.90;;;;;;5029751;28;20403;-63
2023/07/06 13:02:36;;;;;;;5.03;2.00;;;20.50;99.90;;;;;;5046485;28;20403;-62
2023/07/06 13:05:23;;;;;;;6.72;1.98;;;20.70;99.90;;;;;;5046932;28;20044;-63